Terminal Aerodrome Forecast
Issued by NWS Sioux Falls, SD

Home | Current Version | Previous Version | Graphics & Text | Print | Product List | Glossary On
Versions: 1 2 3 4 5 6 7 8 9 10 11 12 13 14 15 16 17 18 19 20 21 22 23
154
FTUS43 KFSD 111637 AAB
TAFFSD
TAF AMD
KFSD 111637Z 1117/1212 16008KT P6SM -SN OVC022
     FM111900 17010KT 1 1/2SM -SN BR OVC015
     FM112300 10007KT 2SM -SN OVC015
     FM120100 07005KT P6SM OVC012
     FM120300 33005KT P6SM OVC025
     FM120900 35013KT P6SM SCT015 BKN080=

USA.gov is the U.S. government's official web portal to all federal, state and local government web resources and services.